sensor_id;sensor_type;location;lat;lon;timestamp;P1;durP1;ratioP1;P2;durP2;ratioP2
15281;SDS011;7742;44.320;19.820;2023-07-31T00:01:37;161.73;;;154.02;;
15281;SDS011;7742;44.320;19.820;2023-07-31T00:04:04;152.27;;;145.25;;
15281;SDS011;7742;44.320;19.820;2023-07-31T00:06:31;151.38;;;144.38;;
15281;SDS011;7742;44.320;19.820;2023-07-31T00:08:58;158.32;;;150.80;;
15281;SDS011;7742;44.320;19.820;2023-07-31T00:11:25;145.30;;;138.50;;
15281;SDS011;7742;44.320;19.820;2023-07-31T00:13:52;153.00;;;146.20;;
15281;SDS011;7742;44.320;19.820;2023-07-31T00:16:21;145.33;;;138.83;;
15281;SDS011;7742;44.320;19.820;2023-07-31T00:18:48;150.00;;;143.18;;
15281;SDS011;7742;44.320;19.820;2023-07-31T00:21:15;149.82;;;143.13;;
15281;SDS011;7742;44.320;19.820;2023-07-31T00:23:42;138.70;;;132.53;;
15281;SDS011;7742;44.320;19.820;2023-07-31T00:26:09;139.30;;;133.20;;
15281;SDS011;7742;44.320;19.820;2023-07-31T00:28:36;138.60;;;132.45;;
15281;SDS011;7742;44.320;19.820;2023-07-31T00:31:03;139.52;;;133.40;;
15281;SDS011;7742;44.320;19.820;2023-07-31T00:33:34;142.63;;;136.32;;
15281;SDS011;7742;44.320;19.820;2023-07-31T00:36:01;139.90;;;133.63;;
15281;SDS011;7742;44.320;19.820;2023-07-31T00:38:28;140.60;;;134.50;;
15281;SDS011;7742;44.320;19.820;2023-07-31T00:40:55;136.85;;;130.75;;
15281;SDS011;7742;44.320;19.820;2023-07-31T00:43:22;135.65;;;129.63;;
15281;SDS011;7742;44.320;19.820;2023-07-31T00:45:49;140.00;;;133.90;;
15281;SDS011;7742;44.320;19.820;2023-07-31T00:48:16;133.68;;;127.88;;
15281;SDS011;7742;44.320;19.820;2023-07-31T00:50:44;143.27;;;137.10;;
15281;SDS011;7742;44.320;19.820;2023-07-31T00:53:12;147.68;;;141.23;;
15281;SDS011;7742;44.320;19.820;2023-07-31T00:55:39;141.13;;;134.93;;
15281;SDS011;7742;44.320;19.820;2023-07-31T00:58:06;140.80;;;134.60;;
15281;SDS011;7742;44.320;19.820;2023-07-31T01:00:33;137.10;;;131.00;;
15281;SDS011;7742;44.320;19.820;2023-07-31T01:03:00;139.30;;;133.05;;
15281;SDS011;7742;44.320;19.820;2023-07-31T01:05:29;137.77;;;131.73;;
15281;SDS011;7742;44.320;19.820;2023-07-31T01:08:04;143.38;;;137.07;;
15281;SDS011;7742;44.320;19.820;2023-07-31T01:10:34;139.23;;;133.13;;
15281;SDS011;7742;44.320;19.820;2023-07-31T01:13:03;135.87;;;129.77;;
15281;SDS011;7742;44.320;19.820;2023-07-31T01:15:31;143.00;;;136.70;;
15281;SDS011;7742;44.320;19.820;2023-07-31T01:17:58;138.32;;;132.35;;
15281;SDS011;7742;44.320;19.820;2023-07-31T01:20:26;145.13;;;138.52;;
15281;SDS011;7742;44.320;19.820;2023-07-31T01:23:13;139.38;;;133.23;;
15281;SDS011;7742;44.320;19.820;2023-07-31T01:25:54;140.35;;;134.20;;
15281;SDS011;7742;44.320;19.820;2023-07-31T01:28:23;129.32;;;123.72;;
15281;SDS011;7742;44.320;19.820;2023-07-31T01:30:51;132.30;;;126.57;;
15281;SDS011;7742;44.320;19.820;2023-07-31T01:33:20;131.13;;;125.32;;
15281;SDS011;7742;44.320;19.820;2023-07-31T01:35:47;136.40;;;130.40;;
15281;SDS011;7742;44.320;19.820;2023-07-31T01:38:14;136.65;;;130.57;;
15281;SDS011;7742;44.320;19.820;2023-07-31T01:40:41;130.37;;;124.77;;
15281;SDS011;7742;44.320;19.820;2023-07-31T01:43:10;132.02;;;126.13;;
15281;SDS011;7742;44.320;19.820;2023-07-31T01:45:37;130.60;;;124.90;;
15281;SDS011;7742;44.320;19.820;2023-07-31T01:48:04;123.95;;;118.63;;
15281;SDS011;7742;44.320;19.820;2023-07-31T01:50:31;127.85;;;122.25;;
15281;SDS011;7742;44.320;19.820;2023-07-31T01:52:58;138.18;;;132.07;;
15281;SDS011;7742;44.320;19.820;2023-07-31T01:55:25;132.57;;;126.57;;
15281;SDS011;7742;44.320;19.820;2023-07-31T01:57:52;138.20;;;132.20;;
15281;SDS011;7742;44.320;19.820;2023-07-31T02:00:20;138.13;;;131.98;;
15281;SDS011;7742;44.320;19.820;2023-07-31T02:02:47;140.37;;;134.27;;
15281;SDS011;7742;44.320;19.820;2023-07-31T02:05:15;137.13;;;131.23;;
15281;SDS011;7742;44.320;19.820;2023-07-31T02:07:45;136.95;;;130.98;;
15281;SDS011;7742;44.320;19.820;2023-07-31T02:10:12;130.07;;;124.28;;
15281;SDS011;7742;44.320;19.820;2023-07-31T02:12:39;130.25;;;124.53;;
15281;SDS011;7742;44.320;19.820;2023-07-31T02:15:07;133.82;;;127.93;;
15281;SDS011;7742;44.320;19.820;2023-07-31T02:17:35;136.43;;;130.52;;
15281;SDS011;7742;44.320;19.820;2023-07-31T02:20:02;133.70;;;127.93;;
15281;SDS011;7742;44.320;19.820;2023-07-31T02:22:29;137.43;;;131.55;;
15281;SDS011;7742;44.320;19.820;2023-07-31T02:24:56;133.07;;;127.38;;
15281;SDS011;7742;44.320;19.820;2023-07-31T02:27:23;132.68;;;126.97;;
15281;SDS011;7742;44.320;19.820;2023-07-31T02:29:53;140.15;;;134.05;;
15281;SDS011;7742;44.320;19.820;2023-07-31T02:32:19;146.13;;;139.85;;
15281;SDS011;7742;44.320;19.820;2023-07-31T02:34:58;150.40;;;143.88;;
15281;SDS011;7742;44.320;19.820;2023-07-31T02:37:25;148.50;;;142.07;;
15281;SDS011;7742;44.320;19.820;2023-07-31T02:42:54;148.35;;;141.85;;
15281;SDS011;7742;44.320;19.820;2023-07-31T02:45:21;151.02;;;144.60;;
15281;SDS011;7742;44.320;19.820;2023-07-31T02:47:48;148.55;;;142.23;;
15281;SDS011;7742;44.320;19.820;2023-07-31T02:50:17;146.38;;;139.88;;
15281;SDS011;7742;44.320;19.820;2023-07-31T02:52:44;146.18;;;139.77;;
15281;SDS011;7742;44.320;19.820;2023-07-31T02:55:11;148.30;;;141.65;;
15281;SDS011;7742;44.320;19.820;2023-07-31T02:57:37;152.68;;;145.88;;
15281;SDS011;7742;44.320;19.820;2023-07-31T03:00:05;150.45;;;143.85;;
15281;SDS011;7742;44.320;19.820;2023-07-31T03:02:32;148.38;;;141.98;;
15281;SDS011;7742;44.320;19.820;2023-07-31T03:04:59;152.82;;;146.02;;
15281;SDS011;7742;44.320;19.820;2023-07-31T03:07:27;149.73;;;143.23;;
15281;SDS011;7742;44.320;19.820;2023-07-31T03:09:55;153.25;;;146.55;;
15281;SDS011;7742;44.320;19.820;2023-07-31T03:12:22;153.75;;;147.05;;
15281;SDS011;7742;44.320;19.820;2023-07-31T03:14:49;154.63;;;147.98;;
15281;SDS011;7742;44.320;19.820;2023-07-31T03:17:16;151.93;;;145.35;;
15281;SDS011;7742;44.320;19.820;2023-07-31T03:19:43;145.85;;;139.73;;
15281;SDS011;7742;44.320;19.820;2023-07-31T03:22:10;146.83;;;140.40;;
15281;SDS011;7742;44.320;19.820;2023-07-31T03:24:38;147.43;;;141.07;;
15281;SDS011;7742;44.320;19.820;2023-07-31T03:27:06;155.45;;;149.15;;
15281;SDS011;7742;44.320;19.820;2023-07-31T03:29:32;146.97;;;140.90;;
15281;SDS011;7742;44.320;19.820;2023-07-31T03:31:59;147.30;;;141.23;;
15281;SDS011;7742;44.320;19.820;2023-07-31T03:34:26;130.00;;;124.50;;
15281;SDS011;7742;44.320;19.820;2023-07-31T03:36:53;128.95;;;123.57;;
15281;SDS011;7742;44.320;19.820;2023-07-31T03:39:20;126.10;;;120.80;;
15281;SDS011;7742;44.320;19.820;2023-07-31T03:41:49;127.25;;;121.80;;
15281;SDS011;7742;44.320;19.820;2023-07-31T03:44:15;109.43;;;104.72;;
15281;SDS011;7742;44.320;19.820;2023-07-31T03:46:42;115.07;;;110.28;;
15281;SDS011;7742;44.320;19.820;2023-07-31T03:49:09;102.70;;;98.22;;
15281;SDS011;7742;44.320;19.820;2023-07-31T03:51:36;89.78;;;86.05;;
15281;SDS011;7742;44.320;19.820;2023-07-31T03:54:03;78.82;;;75.22;;
15281;SDS011;7742;44.320;19.820;2023-07-31T03:56:30;66.22;;;63.13;;
15281;SDS011;7742;44.320;19.820;2023-07-31T03:58:58;67.63;;;64.53;;
15281;SDS011;7742;44.320;19.820;2023-07-31T04:01:25;57.95;;;55.08;;
15281;SDS011;7742;44.320;19.820;2023-07-31T04:03:52;55.97;;;53.28;;
15281;SDS011;7742;44.320;19.820;2023-07-31T04:06:19;50.67;;;48.08;;
15281;SDS011;7742;44.320;19.820;2023-07-31T04:08:46;43.78;;;41.65;;
15281;SDS011;7742;44.320;19.820;2023-07-31T04:11:13;43.88;;;41.53;;
15281;SDS011;7742;44.320;19.820;2023-07-31T04:13:40;41.92;;;39.83;;
15281;SDS011;7742;44.320;19.820;2023-07-31T04:16:09;33.00;;;31.25;;
15281;SDS011;7742;44.320;19.820;2023-07-31T04:18:35;23.10;;;21.67;;
15281;SDS011;7742;44.320;19.820;2023-07-31T04:21:02;23.20;;;21.80;;
15281;SDS011;7742;44.320;19.820;2023-07-31T04:23:29;23.95;;;22.60;;
15281;SDS011;7742;44.320;19.820;2023-07-31T04:25:56;25.33;;;24.00;;
15281;SDS011;7742;44.320;19.820;2023-07-31T04:28:23;22.08;;;20.67;;
15281;SDS011;7742;44.320;19.820;2023-07-31T04:30:51;22.75;;;21.50;;
15281;SDS011;7742;44.320;19.820;2023-07-31T04:33:19;22.58;;;21.38;;
15281;SDS011;7742;44.320;19.820;2023-07-31T04:35:50;23.83;;;22.52;;
15281;SDS011;7742;44.320;19.820;2023-07-31T04:38:18;22.30;;;21.10;;
15281;SDS011;7742;44.320;19.820;2023-07-31T04:40:45;24.13;;;22.83;;
15281;SDS011;7742;44.320;19.820;2023-07-31T04:43:12;22.27;;;21.05;;
15281;SDS011;7742;44.320;19.820;2023-07-31T04:45:39;23.10;;;21.90;;
15281;SDS011;7742;44.320;19.820;2023-07-31T04:48:06;22.02;;;20.83;;
15281;SDS011;7742;44.320;19.820;2023-07-31T04:50:34;22.43;;;21.33;;
15281;SDS011;7742;44.320;19.820;2023-07-31T04:53:01;22.00;;;20.80;;
15281;SDS011;7742;44.320;19.820;2023-07-31T04:55:28;21.03;;;19.93;;
15281;SDS011;7742;44.320;19.820;2023-07-31T04:57:55;22.67;;;21.48;;
15281;SDS011;7742;44.320;19.820;2023-07-31T05:00:22;22.77;;;21.58;;
15281;SDS011;7742;44.320;19.820;2023-07-31T05:02:49;22.43;;;21.23;;
15281;SDS011;7742;44.320;19.820;2023-07-31T05:05:16;21.08;;;19.98;;
15281;SDS011;7742;44.320;19.820;2023-07-31T05:07:44;20.80;;;19.70;;
15281;SDS011;7742;44.320;19.820;2023-07-31T05:10:11;19.50;;;18.50;;
15281;SDS011;7742;44.320;19.820;2023-07-31T05:12:38;19.33;;;18.33;;
15281;SDS011;7742;44.320;19.820;2023-07-31T05:15:06;20.45;;;19.45;;
15281;SDS011;7742;44.320;19.820;2023-07-31T05:17:33;19.90;;;18.90;;
15281;SDS011;7742;44.320;19.820;2023-07-31T05:20:00;20.60;;;19.45;;
15281;SDS011;7742;44.320;19.820;2023-07-31T05:22:26;20.33;;;18.83;;
15281;SDS011;7742;44.320;19.820;2023-07-31T05:24:55;19.85;;;18.75;;
15281;SDS011;7742;44.320;19.820;2023-07-31T05:27:22;20.50;;;19.38;;
15281;SDS011;7742;44.320;19.820;2023-07-31T05:29:49;19.90;;;18.80;;
15281;SDS011;7742;44.320;19.820;2023-07-31T05:32:16;20.75;;;19.45;;
15281;SDS011;7742;44.320;19.820;2023-07-31T05:34:43;20.33;;;19.23;;
15281;SDS011;7742;44.320;19.820;2023-07-31T05:37:10;19.20;;;18.10;;
15281;SDS011;7742;44.320;19.820;2023-07-31T05:39:37;19.10;;;18.05;;
15281;SDS011;7742;44.320;19.820;2023-07-31T05:42:06;18.73;;;17.63;;
15281;SDS011;7742;44.320;19.820;2023-07-31T05:44:33;18.55;;;17.55;;
15281;SDS011;7742;44.320;19.820;2023-07-31T05:47:00;18.05;;;17.05;;
15281;SDS011;7742;44.320;19.820;2023-07-31T05:49:27;18.55;;;17.55;;
15281;SDS011;7742;44.320;19.820;2023-07-31T05:51:54;19.20;;;18.20;;
15281;SDS011;7742;44.320;19.820;2023-07-31T05:54:21;19.60;;;18.40;;
15281;SDS011;7742;44.320;19.820;2023-07-31T05:56:47;19.40;;;18.40;;
15281;SDS011;7742;44.320;19.820;2023-07-31T05:59:16;19.52;;;18.42;;
15281;SDS011;7742;44.320;19.820;2023-07-31T06:01:43;18.38;;;17.30;;
15281;SDS011;7742;44.320;19.820;2023-07-31T06:04:10;18.90;;;17.90;;
15281;SDS011;7742;44.320;19.820;2023-07-31T06:06:37;19.70;;;18.70;;
15281;SDS011;7742;44.320;19.820;2023-07-31T06:09:04;18.37;;;17.40;;
15281;SDS011;7742;44.320;19.820;2023-07-31T06:11:31;19.20;;;18.10;;
15281;SDS011;7742;44.320;19.820;2023-07-31T06:13:58;19.38;;;18.27;;
15281;SDS011;7742;44.320;19.820;2023-07-31T06:16:27;18.20;;;17.10;;
15281;SDS011;7742;44.320;19.820;2023-07-31T06:18:53;18.48;;;17.38;;
15281;SDS011;7742;44.320;19.820;2023-07-31T06:21:20;19.15;;;18.15;;
15281;SDS011;7742;44.320;19.820;2023-07-31T06:23:47;18.98;;;17.80;;
15281;SDS011;7742;44.320;19.820;2023-07-31T06:26:14;25.50;;;24.17;;
15281;SDS011;7742;44.320;19.820;2023-07-31T06:28:41;20.13;;;19.02;;
15281;SDS011;7742;44.320;19.820;2023-07-31T06:31:08;17.25;;;16.35;;
15281;SDS011;7742;44.320;19.820;2023-07-31T06:33:37;18.77;;;17.77;;
15281;SDS011;7742;44.320;19.820;2023-07-31T06:36:04;19.10;;;18.20;;
15281;SDS011;7742;44.320;19.820;2023-07-31T06:38:31;19.50;;;18.50;;
15281;SDS011;7742;44.320;19.820;2023-07-31T06:40:58;21.23;;;20.02;;
15281;SDS011;7742;44.320;19.820;2023-07-31T06:43:25;20.17;;;19.17;;
15281;SDS011;7742;44.320;19.820;2023-07-31T06:45:52;19.80;;;18.73;;
15281;SDS011;7742;44.320;19.820;2023-07-31T06:51:14;20.05;;;19.05;;
15281;SDS011;7742;44.320;19.820;2023-07-31T06:53:41;20.70;;;19.55;;
15281;SDS011;7742;44.320;19.820;2023-07-31T06:56:10;22.37;;;21.20;;
15281;SDS011;7742;44.320;19.820;2023-07-31T06:58:37;22.67;;;21.48;;
15281;SDS011;7742;44.320;19.820;2023-07-31T07:01:04;22.38;;;21.38;;
15281;SDS011;7742;44.320;19.820;2023-07-31T07:03:31;26.00;;;24.80;;
15281;SDS011;7742;44.320;19.820;2023-07-31T07:05:58;22.75;;;21.73;;
15281;SDS011;7742;44.320;19.820;2023-07-31T07:08:27;21.48;;;20.38;;
15281;SDS011;7742;44.320;19.820;2023-07-31T07:10:54;25.50;;;24.20;;
15281;SDS011;7742;44.320;19.820;2023-07-31T07:13:21;20.40;;;19.20;;
15281;SDS011;7742;44.320;19.820;2023-07-31T07:15:48;22.83;;;21.83;;
15281;SDS011;7742;44.320;19.820;2023-07-31T07:18:15;22.20;;;21.20;;
15281;SDS011;7742;44.320;19.820;2023-07-31T07:20:46;22.80;;;21.70;;
15281;SDS011;7742;44.320;19.820;2023-07-31T07:23:13;22.30;;;21.30;;
15281;SDS011;7742;44.320;19.820;2023-07-31T07:25:41;17.63;;;16.83;;
15281;SDS011;7742;44.320;19.820;2023-07-31T07:28:08;17.90;;;17.00;;
15281;SDS011;7742;44.320;19.820;2023-07-31T07:30:35;17.83;;;16.92;;
15281;SDS011;7742;44.320;19.820;2023-07-31T07:33:02;17.70;;;16.90;;
15281;SDS011;7742;44.320;19.820;2023-07-31T07:35:29;19.10;;;18.20;;
15281;SDS011;7742;44.320;19.820;2023-07-31T07:37:56;19.00;;;18.10;;
15281;SDS011;7742;44.320;19.820;2023-07-31T07:40:23;16.60;;;15.80;;
15281;SDS011;7742;44.320;19.820;2023-07-31T07:42:51;18.63;;;17.73;;
15281;SDS011;7742;44.320;19.820;2023-07-31T07:45:18;18.95;;;18.05;;
15281;SDS011;7742;44.320;19.820;2023-07-31T07:59:35;20.13;;;19.02;;
15281;SDS011;7742;44.320;19.820;2023-07-31T08:02:02;19.85;;;18.95;;
15281;SDS011;7742;44.320;19.820;2023-07-31T08:04:29;19.05;;;18.15;;
15281;SDS011;7742;44.320;19.820;2023-07-31T08:06:56;19.73;;;18.80;;
15281;SDS011;7742;44.320;19.820;2023-07-31T08:09:23;20.70;;;19.60;;
15281;SDS011;7742;44.320;19.820;2023-07-31T08:11:50;18.98;;;18.08;;
15281;SDS011;7742;44.320;19.820;2023-07-31T08:14:17;19.67;;;18.67;;
15281;SDS011;7742;44.320;19.820;2023-07-31T08:16:45;19.37;;;18.47;;
15281;SDS011;7742;44.320;19.820;2023-07-31T08:19:12;19.45;;;18.50;;
15281;SDS011;7742;44.320;19.820;2023-07-31T08:21:39;19.52;;;18.52;;
15281;SDS011;7742;44.320;19.820;2023-07-31T08:24:07;19.02;;;17.88;;
15281;SDS011;7742;44.320;19.820;2023-07-31T08:26:34;19.60;;;18.60;;
15281;SDS011;7742;44.320;19.820;2023-07-31T08:29:01;17.75;;;16.85;;
15281;SDS011;7742;44.320;19.820;2023-07-31T08:31:28;16.50;;;15.70;;
15281;SDS011;7742;44.320;19.820;2023-07-31T08:33:57;16.95;;;16.13;;
15281;SDS011;7742;44.320;19.820;2023-07-31T08:36:24;17.02;;;16.23;;
15281;SDS011;7742;44.320;19.820;2023-07-31T08:38:51;20.10;;;19.10;;
15281;SDS011;7742;44.320;19.820;2023-07-31T08:41:18;19.20;;;18.25;;
15281;SDS011;7742;44.320;19.820;2023-07-31T08:43:45;18.13;;;17.23;;
15281;SDS011;7742;44.320;19.820;2023-07-31T08:46:12;17.13;;;16.33;;
15281;SDS011;7742;44.320;19.820;2023-07-31T08:48:39;17.65;;;16.83;;
15281;SDS011;7742;44.320;19.820;2023-07-31T08:51:08;19.57;;;18.57;;
15281;SDS011;7742;44.320;19.820;2023-07-31T08:53:35;19.15;;;18.15;;
15281;SDS011;7742;44.320;19.820;2023-07-31T08:56:02;19.95;;;18.95;;
15281;SDS011;7742;44.320;19.820;2023-07-31T08:58:30;19.42;;;18.52;;
15281;SDS011;7742;44.320;19.820;2023-07-31T09:00:57;20.45;;;19.45;;
15281;SDS011;7742;44.320;19.820;2023-07-31T09:03:25;20.90;;;19.90;;
15281;SDS011;7742;44.320;19.820;2023-07-31T09:05:52;19.60;;;18.60;;
15281;SDS011;7742;44.320;19.820;2023-07-31T09:08:21;19.15;;;18.15;;
15281;SDS011;7742;44.320;19.820;2023-07-31T09:10:48;19.00;;;18.00;;
15281;SDS011;7742;44.320;19.820;2023-07-31T09:13:16;17.58;;;16.73;;
15281;SDS011;7742;44.320;19.820;2023-07-31T09:15:44;18.77;;;17.87;;
15281;SDS011;7742;44.320;19.820;2023-07-31T09:18:12;18.27;;;17.27;;
15281;SDS011;7742;44.320;19.820;2023-07-31T09:20:39;21.02;;;19.98;;
15281;SDS011;7742;44.320;19.820;2023-07-31T09:23:07;21.35;;;20.33;;
15281;SDS011;7742;44.320;19.820;2023-07-31T09:25:36;18.03;;;17.13;;
15281;SDS011;7742;44.320;19.820;2023-07-31T09:28:04;17.42;;;16.63;;
15281;SDS011;7742;44.320;19.820;2023-07-31T09:30:32;17.40;;;16.50;;
15281;SDS011;7742;44.320;19.820;2023-07-31T09:33:10;16.98;;;16.10;;
15281;SDS011;7742;44.320;19.820;2023-07-31T09:35:37;16.70;;;15.90;;
15281;SDS011;7742;44.320;19.820;2023-07-31T09:38:06;21.10;;;20.10;;
15281;SDS011;7742;44.320;19.820;2023-07-31T09:40:33;18.13;;;17.23;;
15281;SDS011;7742;44.320;19.820;2023-07-31T09:43:03;18.27;;;17.38;;
15281;SDS011;7742;44.320;19.820;2023-07-31T09:45:33;18.58;;;17.60;;
15281;SDS011;7742;44.320;19.820;2023-07-31T09:48:00;19.48;;;18.58;;
15281;SDS011;7742;44.320;19.820;2023-07-31T09:50:27;19.77;;;18.83;;
15281;SDS011;7742;44.320;19.820;2023-07-31T09:52:55;20.60;;;19.60;;
15281;SDS011;7742;44.320;19.820;2023-07-31T09:55:22;19.10;;;18.20;;
15281;SDS011;7742;44.320;19.820;2023-07-31T09:57:49;18.35;;;17.45;;
15281;SDS011;7742;44.320;19.820;2023-07-31T10:00:18;18.70;;;17.80;;
15281;SDS011;7742;44.320;19.820;2023-07-31T10:02:47;22.85;;;21.85;;
15281;SDS011;7742;44.320;19.820;2023-07-31T10:05:15;20.85;;;19.88;;
15281;SDS011;7742;44.320;19.820;2023-07-31T10:07:42;19.90;;;18.90;;
15281;SDS011;7742;44.320;19.820;2023-07-31T10:10:10;19.17;;;18.17;;
15281;SDS011;7742;44.320;19.820;2023-07-31T10:12:38;19.83;;;18.83;;
15281;SDS011;7742;44.320;19.820;2023-07-31T10:15:06;20.15;;;19.15;;
15281;SDS011;7742;44.320;19.820;2023-07-31T10:17:34;18.40;;;17.50;;
15281;SDS011;7742;44.320;19.820;2023-07-31T10:20:02;20.10;;;19.00;;
15281;SDS011;7742;44.320;19.820;2023-07-31T10:22:30;19.33;;;18.42;;
15281;SDS011;7742;44.320;19.820;2023-07-31T10:24:57;18.30;;;17.40;;
15281;SDS011;7742;44.320;19.820;2023-07-31T10:27:25;20.77;;;19.77;;
15281;SDS011;7742;44.320;19.820;2023-07-31T10:29:52;19.30;;;18.40;;
15281;SDS011;7742;44.320;19.820;2023-07-31T10:32:20;18.67;;;17.73;;
15281;SDS011;7742;44.320;19.820;2023-07-31T10:34:48;20.20;;;19.20;;
15281;SDS011;7742;44.320;19.820;2023-07-31T10:37:19;18.63;;;17.63;;
15281;SDS011;7742;44.320;19.820;2023-07-31T10:39:54;19.17;;;18.27;;
15281;SDS011;7742;44.320;19.820;2023-07-31T10:42:27;17.30;;;16.23;;
15281;SDS011;7742;44.320;19.820;2023-07-31T10:44:56;16.52;;;15.60;;
15281;SDS011;7742;44.320;19.820;2023-07-31T10:47:23;19.42;;;18.52;;
15281;SDS011;7742;44.320;19.820;2023-07-31T10:49:51;22.33;;;21.23;;
15281;SDS011;7742;44.320;19.820;2023-07-31T10:52:19;21.35;;;20.08;;
15281;SDS011;7742;44.320;19.820;2023-07-31T10:54:47;19.53;;;18.43;;
15281;SDS011;7742;44.320;19.820;2023-07-31T10:57:20;21.80;;;20.60;;
15281;SDS011;7742;44.320;19.820;2023-07-31T10:59:48;21.63;;;20.52;;
15281;SDS011;7742;44.320;19.820;2023-07-31T11:02:25;21.05;;;19.95;;
15281;SDS011;7742;44.320;19.820;2023-07-31T11:05:09;23.48;;;22.17;;
15281;SDS011;7742;44.320;19.820;2023-07-31T11:07:48;22.27;;;21.00;;
15281;SDS011;7742;44.320;19.820;2023-07-31T11:10:18;19.42;;;18.42;;
15281;SDS011;7742;44.320;19.820;2023-07-31T11:12:45;19.42;;;18.52;;
15281;SDS011;7742;44.320;19.820;2023-07-31T11:15:12;19.10;;;18.10;;
15281;SDS011;7742;44.320;19.820;2023-07-31T11:17:39;20.40;;;19.45;;
15281;SDS011;7742;44.320;19.820;2023-07-31T11:20:07;19.00;;;18.10;;
15281;SDS011;7742;44.320;19.820;2023-07-31T11:22:35;18.85;;;17.83;;
15281;SDS011;7742;44.320;19.820;2023-07-31T11:25:03;19.27;;;18.38;;
15281;SDS011;7742;44.320;19.820;2023-07-31T11:27:30;17.98;;;17.05;;
15281;SDS011;7742;44.320;19.820;2023-07-31T11:30:00;19.13;;;18.23;;
15281;SDS011;7742;44.320;19.820;2023-07-31T11:32:27;20.13;;;19.02;;
15281;SDS011;7742;44.320;19.820;2023-07-31T11:34:54;18.90;;;17.90;;
15281;SDS011;7742;44.320;19.820;2023-07-31T11:37:22;17.40;;;16.60;;
15281;SDS011;7742;44.320;19.820;2023-07-31T11:40:00;17.90;;;17.10;;
15281;SDS011;7742;44.320;19.820;2023-07-31T11:42:27;17.90;;;17.00;;
15281;SDS011;7742;44.320;19.820;2023-07-31T11:44:53;16.88;;;16.08;;
15281;SDS011;7742;44.320;19.820;2023-07-31T11:47:20;18.50;;;17.60;;
15281;SDS011;7742;44.320;19.820;2023-07-31T11:49:47;17.25;;;16.40;;
15281;SDS011;7742;44.320;19.820;2023-07-31T11:52:15;16.77;;;15.87;;
15281;SDS011;7742;44.320;19.820;2023-07-31T11:54:44;17.10;;;16.10;;
15281;SDS011;7742;44.320;19.820;2023-07-31T11:57:13;18.10;;;17.20;;
15281;SDS011;7742;44.320;19.820;2023-07-31T11:59:40;16.40;;;15.60;;
15281;SDS011;7742;44.320;19.820;2023-07-31T12:02:08;17.10;;;16.20;;
15281;SDS011;7742;44.320;19.820;2023-07-31T12:04:35;16.60;;;15.80;;
15281;SDS011;7742;44.320;19.820;2023-07-31T12:07:03;17.25;;;16.45;;
15281;SDS011;7742;44.320;19.820;2023-07-31T12:09:30;16.25;;;15.48;;
15281;SDS011;7742;44.320;19.820;2023-07-31T12:11:57;16.58;;;15.68;;
15281;SDS011;7742;44.320;19.820;2023-07-31T12:14:27;16.50;;;15.70;;
15281;SDS011;7742;44.320;19.820;2023-07-31T12:16:54;17.30;;;16.40;;
15281;SDS011;7742;44.320;19.820;2023-07-31T12:19:22;17.50;;;16.60;;
15281;SDS011;7742;44.320;19.820;2023-07-31T12:21:49;16.95;;;16.15;;
15281;SDS011;7742;44.320;19.820;2023-07-31T12:24:17;17.73;;;16.93;;
15281;SDS011;7742;44.320;19.820;2023-07-31T12:26:45;17.58;;;16.77;;
15281;SDS011;7742;44.320;19.820;2023-07-31T12:29:13;17.45;;;16.55;;
15281;SDS011;7742;44.320;19.820;2023-07-31T12:31:42;17.67;;;16.88;;
15281;SDS011;7742;44.320;19.820;2023-07-31T12:34:14;17.73;;;16.73;;
15281;SDS011;7742;44.320;19.820;2023-07-31T12:36:42;18.02;;;17.23;;
15281;SDS011;7742;44.320;19.820;2023-07-31T12:39:09;17.20;;;16.50;;
15281;SDS011;7742;44.320;19.820;2023-07-31T12:41:36;18.60;;;17.70;;
15281;SDS011;7742;44.320;19.820;2023-07-31T12:44:03;17.85;;;17.05;;
15281;SDS011;7742;44.320;19.820;2023-07-31T12:46:30;18.27;;;17.38;;
15281;SDS011;7742;44.320;19.820;2023-07-31T12:48:58;15.60;;;14.80;;
15281;SDS011;7742;44.320;19.820;2023-07-31T12:51:25;15.95;;;15.25;;
15281;SDS011;7742;44.320;19.820;2023-07-31T12:53:52;15.60;;;14.80;;
15281;SDS011;7742;44.320;19.820;2023-07-31T12:56:19;15.50;;;14.70;;
15281;SDS011;7742;44.320;19.820;2023-07-31T12:58:46;16.77;;;16.08;;
15281;SDS011;7742;44.320;19.820;2023-07-31T13:01:13;17.97;;;17.17;;
15281;SDS011;7742;44.320;19.820;2023-07-31T13:03:40;17.95;;;17.05;;
15281;SDS011;7742;44.320;19.820;2023-07-31T13:06:08;16.65;;;15.85;;
15281;SDS011;7742;44.320;19.820;2023-07-31T13:08:36;17.42;;;16.63;;
15281;SDS011;7742;44.320;19.820;2023-07-31T13:11:03;15.20;;;14.40;;
15281;SDS011;7742;44.320;19.820;2023-07-31T13:13:30;17.92;;;17.02;;
15281;SDS011;7742;44.320;19.820;2023-07-31T13:15:58;16.15;;;15.32;;
15281;SDS011;7742;44.320;19.820;2023-07-31T13:18:25;17.73;;;16.92;;
15281;SDS011;7742;44.320;19.820;2023-07-31T13:20:52;15.68;;;14.90;;
15281;SDS011;7742;44.320;19.820;2023-07-31T13:23:21;16.48;;;15.77;;
15281;SDS011;7742;44.320;19.820;2023-07-31T13:25:48;17.58;;;16.77;;
15281;SDS011;7742;44.320;19.820;2023-07-31T13:28:15;17.50;;;16.70;;
15281;SDS011;7742;44.320;19.820;2023-07-31T13:30:42;17.85;;;16.95;;
15281;SDS011;7742;44.320;19.820;2023-07-31T13:33:09;16.30;;;15.50;;
15281;SDS011;7742;44.320;19.820;2023-07-31T13:35:36;17.40;;;16.60;;
15281;SDS011;7742;44.320;19.820;2023-07-31T13:38:03;16.67;;;15.87;;
15281;SDS011;7742;44.320;19.820;2023-07-31T13:40:32;16.70;;;15.90;;
15281;SDS011;7742;44.320;19.820;2023-07-31T13:42:59;17.23;;;16.40;;
15281;SDS011;7742;44.320;19.820;2023-07-31T13:45:26;15.95;;;15.25;;
15281;SDS011;7742;44.320;19.820;2023-07-31T13:47:53;18.65;;;17.75;;
15281;SDS011;7742;44.320;19.820;2023-07-31T13:50:20;15.80;;;15.10;;
15281;SDS011;7742;44.320;19.820;2023-07-31T13:52:47;15.60;;;14.90;;
15281;SDS011;7742;44.320;19.820;2023-07-31T13:55:14;16.52;;;15.77;;
15281;SDS011;7742;44.320;19.820;2023-07-31T13:57:43;14.80;;;14.10;;
15281;SDS011;7742;44.320;19.820;2023-07-31T14:00:10;15.18;;;14.48;;
15281;SDS011;7742;44.320;19.820;2023-07-31T14:02:38;16.60;;;15.82;;
15281;SDS011;7742;44.320;19.820;2023-07-31T14:05:05;17.15;;;16.27;;
15281;SDS011;7742;44.320;19.820;2023-07-31T14:07:33;17.13;;;16.33;;
15281;SDS011;7742;44.320;19.820;2023-07-31T14:10:00;17.83;;;16.92;;
15281;SDS011;7742;44.320;19.820;2023-07-31T14:12:29;18.80;;;17.90;;
15281;SDS011;7742;44.320;19.820;2023-07-31T14:14:57;17.17;;;16.35;;
15281;SDS011;7742;44.320;19.820;2023-07-31T14:17:24;16.50;;;15.70;;
15281;SDS011;7742;44.320;19.820;2023-07-31T14:19:51;16.90;;;16.00;;
15281;SDS011;7742;44.320;19.820;2023-07-31T14:22:26;17.40;;;16.50;;
15281;SDS011;7742;44.320;19.820;2023-07-31T14:24:53;18.10;;;17.20;;
15281;SDS011;7742;44.320;19.820;2023-07-31T14:27:20;19.55;;;18.60;;
15281;SDS011;7742;44.320;19.820;2023-07-31T14:29:47;19.15;;;18.15;;
15281;SDS011;7742;44.320;19.820;2023-07-31T14:32:16;18.50;;;17.50;;
15281;SDS011;7742;44.320;19.820;2023-07-31T14:34:43;18.40;;;17.40;;
15281;SDS011;7742;44.320;19.820;2023-07-31T14:37:10;18.13;;;17.13;;